Giurgiu, Romania
Current Conditions -  °F | °C
As of 2:00 PM on Saturday 27 Dec 2014 (Local Time) from LRBS Reporting Station
Light Snow Light Snow  
Wind Chill: 28°   Ceiling: 500
Heat Index: 34°   Visibility: 0.87mi
Dew Point: 32°   Wind: 7mph
Humidity: 93%   Direction: 360°N
Pressure: 29.83"   Gusts: NA
Location:  43.9°N, 25.97°E
Report Text: LRBS 271100Z 36006KT 320V050 1400 R07/P2000 R25/1500N -SN BRBKN005 OVC015 01/00 Q1010 R07/690294 NOSIG
Loading
Personal Weather Stations






























Interactive Weather Map New forecast layout! Learn more

10-Day Weather Forecast

Advertisements
Track Severe Weather on mobile